ADDS METAR Data INFO
IDs: Format: Raw Decoded Include TAF

Data at: 0436 UTC 24 Apr 2018

KSLR 240415Z AUTO 00000KT 10SM CLR 14/12 A3005 RMK AO2 T01370121
KSLR 240355Z AUTO 23003KT 10SM CLR 14/12 A3005 RMK AO2 T01370120
KSLR 240335Z AUTO 00000KT 10SM CLR 14/12 A3004 RMK AO2 T01370121
KSLR 240315Z AUTO 23005KT 10SM CLR 14/12 A3004 RMK AO2 T01430120
KSLR 240255Z AUTO 00000KT 10SM CLR 15/12 A3004 RMK AO2 T01470121
KSLR 240235Z AUTO 21004KT 10SM CLR 16/12 A3003 RMK AO2 T01570124
KSLR 240215Z AUTO 22004KT 10SM CLR 16/12 A3002 RMK AO2 T01560122
KSLR 240155Z AUTO 22004KT 10SM CLR 17/12 A3002 RMK AO2 T01670124
KSLR 240135Z AUTO 24004KT 10SM CLR 17/13 A3002 RMK AO2 T01710125
KSLR 240115Z AUTO 24003KT 10SM CLR 18/13 A3001 RMK AO2 T01770125
KSLR 240055Z AUTO 00000KT 10SM CLR 19/12 A3001 RMK AO2 T01930120
KSLR 240035Z AUTO 00000KT 10SM CLR 20/12 A3001 RMK AO2 T01950122
KSLR 240015Z AUTO 27003KT 10SM SCT049 20/12 A3001 RMK AO2 T02000122
KSLR 232355Z AUTO 00000KT 10SM SCT049 20/12 A3001 RMK AO2 T02020119 10207 20178
KSLR 232335Z AUTO 00000KT 10SM SCT047 20/12 A3001 RMK AO2 T02030121
KSLR 232315Z AUTO 29003KT 10SM BKN046 20/12 A3002 RMK AO2 T02040119
KSLR 232255Z AUTO 32004KT 10SM BKN044 21/12 A3002 RMK AO2 T02050121
KSLR 232235Z AUTO 32005KT 10SM SCT040 20/12 A3002 RMK AO2 T02000122
KSLR 232215Z AUTO 32007KT 10SM BKN036 19/12 A3002 RMK AO2 T01930116
KSLR 232155Z AUTO 33011KT 10SM OVC036 20/12 A3002 RMK AO2 T01950121
KSLR 232135Z AUTO 33010KT 10SM OVC034 19/12 A3002 RMK AO2 T01930122
KSLR 232115Z AUTO 32010KT 10SM OVC034 20/12 A3003 RMK AO2 T02020122
KSLR 232055Z AUTO 33012KT 10SM OVC034 20/12 A3004 RMK AO2 T01970124
KSLR 232035Z AUTO 30009KT 10SM OVC034 20/12 A3004 RMK AO2 T02000121
KSLR 232015Z AUTO 33011G14KT 10SM OVC034 20/12 A3004 RMK AO2 T02040122
KSLR 231955Z AUTO 32009KT 10SM OVC032 21/12 A3006 RMK AO2 T02070124
KSLR 231935Z AUTO 32010KT 10SM BKN030 20/12 A3006 RMK AO2 T01970123
KSLR 231915Z AUTO 34010G14KT 10SM BKN030 19/12 A3006 RMK AO2 T01910119
KSLR 231855Z AUTO 31009G14KT 10SM BKN028 18/11 A3007 RMK AO2 T01830114
KSLR 231835Z AUTO 33010KT 10SM BKN028 18/12 A3007 RMK AO2 T01840115
KSLR 231815Z AUTO 32010KT 10SM OVC028 18/12 A3007 RMK AO2 T01790118
KSLR 231755Z AUTO 31011KT 10SM OVC028 18/12 A3008 RMK AO2 T01750116 10175 20122
KSLR 231740Z AUTO 33010G14KT 10SM OVC030 17/11 A3008 RMK AO2 T01730110
KSLR 231715Z AUTO 33012KT 10SM OVC028 17/11 A3009 RMK AO2 T01660111
KSLR 231655Z AUTO 30006KT 10SM SCT023 OVC030 17/11 A3009 RMK AO2 T01670109
KSLR 231635Z AUTO 33009KT 10SM OVC023 16/11 A3009 RMK AO2 T01570112
KSLR 231615Z AUTO 33011KT 10SM BKN023 OVC029 16/11 A3009 RMK AO2 T01550112
KSLR 231555Z AUTO 32009KT M1/4SM HZ OVC021 16/11 A3009 RMK AO2 T01560112
KSLR 231535Z AUTO 32013G16KT 10SM SCT021 OVC029 16/11 A3009 RMK AO2 T01550113
KSLR 231515Z AUTO 33011G16KT 10SM SCT021 OVC027 15/11 A3009 RMK AO2 T01500111
KSLR 231455Z AUTO 33013KT 10SM SCT021 OVC027 15/11 A3008 RMK AO2 T01500113
KSLR 231435Z AUTO 32010KT 10SM SCT019 OVC027 15/11 A3008 RMK AO2 T01480114
KSLR 231415Z AUTO 32011KT 10SM SCT019 OVC027 15/11 A3007 RMK AO2 T01470112
KSLR 231355Z AUTO 32008KT 10SM OVC027 15/11 A3007 RMK AO2 T01450112
KSLR 231340Z AUTO 30006KT 10SM OVC025 14/11 A3007 RMK AO2 T01390112
KSLR 231315Z AUTO 30006KT 10SM OVC023 13/11 A3007 RMK AO2 T01320110
KSLR 231255Z AUTO 30007KT 10SM OVC023 13/11 A3007 RMK AO2 T01300107
KSLR 231235Z AUTO 30006KT 10SM OVC023 13/11 A3006 RMK AO2 T01280106
KSLR 231215Z AUTO 31008KT 10SM OVC023 13/11 A3006 RMK AO2 T01260106
KSLR 231155Z AUTO 32007KT 10SM OVC023 12/11 A3005 RMK AO2 T01220107 10145 20112
KSLR 231135Z AUTO 31005KT 10SM BKN023 12/11 A3004 RMK AO2 T01200105
KSLR 231115Z AUTO 31007KT 10SM SCT018 12/10 A3004 RMK AO2 T01220102
KSLR 231055Z AUTO 31007KT 10SM OVC018 13/11 A3003 RMK AO2 T01260105
KSLR 231035Z AUTO 30007KT 10SM OVC018 12/10 A3003 RMK AO2 T01210102
KSLR 231015Z AUTO 28008KT 10SM BKN020 12/10 A3002 RMK AO2 T01200102
KSLR 230955Z AUTO 30008KT 10SM SCT020 11/10 A3002 RMK AO2 T01120100
KSLR 230935Z AUTO 30006KT 10SM CLR 12/10 A3002 RMK AO2 T01150101
KSLR 230915Z AUTO 29005KT 10SM SCT050 11/10 A3002 RMK AO2 T01140101
KSLR 230855Z AUTO 26003KT 10SM BKN050 12/10 A3002 RMK AO2 T01190100
KSLR 230835Z AUTO 32008KT 10SM CLR 12/10 A3001 RMK AO2 T01210101
KSLR 230815Z AUTO 33008KT 10SM CLR 13/10 A3001 RMK AO2 T01250100
KSLR 230755Z AUTO 32008KT 10SM CLR 13/10 A3001 RMK AO2 T01280098
KSLR 230735Z AUTO 32008KT 10SM CLR 13/10 A3002 RMK AO2 T01320098
KSLR 230715Z AUTO 34008KT 10SM BKN041 14/10 A3002 RMK AO2 T01360097
KSLR 230700Z AUTO 34010KT 10SM OVC041 14/10 A3003 RMK AO2 T01400099
KSLR 230635Z AUTO 33009KT 10SM OVC043 14/10 A3003 RMK AO2 T01430098
KSLR 230615Z AUTO 33009KT 10SM OVC043 15/10 A3003 RMK AO2 T01450099
KSLR 230555Z AUTO 33006KT 10SM OVC047 14/11 A3003 RMK AO2 T01440105 10159 20140 401750114
KSLR 230535Z AUTO 33005KT 10SM OVC047 14/11 A3003 RMK AO2 T01410108
KSLR 230515Z AUTO 32005KT 10SM OVC047 14/11 A3003 RMK AO2 T01400107
KSLR 230455Z AUTO 32004KT 10SM OVC045 14/11 A3004 RMK AO2 T01410107
KSLR 230435Z AUTO 32004KT 10SM OVC045 15/11 A3004 RMK AO2 T01450105
KSLR 230415Z AUTO 00000KT 10SM OVC045 14/11 A3004 RMK AO2 T01430105
KSLR 230355Z AUTO 30004KT 10SM OVC047 14/10 A3005 RMK AO2 T01430104
KSLR 230335Z AUTO 32004KT 10SM OVC047 14/10 A3005 RMK AO2 T01430102
KSLR 230315Z AUTO 31004KT 10SM OVC047 15/10 A3005 RMK AO2 T01450101
KSLR 230255Z AUTO 32004KT 10SM OVC047 15/10 A3004 RMK AO2 T01450099
KSLR 230235Z AUTO 35004KT 10SM OVC047 15/10 A3004 RMK AO2 T01450098
KSLR 230215Z AUTO 01005KT 10SM OVC047 15/10 A3004 RMK AO2 T01460097
KSLR 230155Z AUTO 36007KT 10SM OVC045 15/10 A3004 RMK AO2 T01500097
KSLR 230135Z AUTO 35006KT 10SM OVC045 15/10 A3004 RMK AO2 T01520096
KSLR 230115Z AUTO 34008KT 10SM BKN041 OVC046 16/09 A3004 RMK AO2 T01550094
KSLR 230055Z AUTO 33007KT 10SM BKN039 OVC046 16/10 A3003 RMK AO2 T01550095
KSLR 230035Z AUTO 33004KT 10SM OVC039 16/09 A3002 RMK AO2 T01560093
KSLR 230015Z AUTO 32008KT 10SM OVC039 16/09 A3002 RMK AO2 T01580092
KSLR 222355Z AUTO 31007KT 10SM OVC039 16/09 A3002 RMK AO2 T01590090 10175 20145
KSLR 222335Z AUTO 31008KT 10SM OVC039 16/09 A3002 RMK AO2 T01600090
KSLR 222315Z AUTO 32009G15KT 10SM OVC041 16/09 A3002 RMK AO2 T01600089
KSLR 222255Z AUTO 31007KT 10SM BKN043 BKN049 BKN060 16/09 A3002 RMK AO2 T01630088
KSLR 222235Z AUTO 32015G18KT 10SM SCT037 SCT042 BKN060 17/09 A3002 RMK AO2 T01710085
KSLR 222215Z AUTO 32016KT 10SM BKN039 17/09 A3002 RMK AO2 T01730086
KSLR 222155Z AUTO 32013KT 10SM OVC039 16/09 A3002 RMK AO2 T01630086
KSLR 222135Z AUTO 30014G18KT 10SM OVC039 17/09 A3002 RMK AO2 T01700085
KSLR 222115Z AUTO 33013KT 10SM BKN039 OVC048 16/09 A3002 RMK AO2 T01640088
KSLR 222055Z AUTO 30011KT 10SM SCT039 OVC045 16/09 A3003 RMK AO2 T01630086
KSLR 222035Z AUTO 32014G20KT 10SM OVC040 17/09 A3004 RMK AO2 T01650085
KSLR 222015Z AUTO 30013G18KT 10SM OVC038 16/09 A3004 RMK AO2 T01620085
KSLR 221955Z AUTO 31009G15KT 10SM OVC036 16/08 A3005 RMK AO2 T01580084
KSLR 221935Z AUTO 32013KT 10SM OVC033 16/09 A3006 RMK AO2 T01560085
KSLR 221915Z AUTO 31010KT 10SM OVC031 15/08 A3006 RMK AO2 T01540079
KSLR 221855Z AUTO 31013G16KT 10SM OVC029 15/08 A3006 RMK AO2 T01510081
KSLR 221835Z AUTO 32013G16KT 10SM OVC029 15/08 A3006 RMK AO2 T01460081
KSLR 221815Z AUTO 32011G16KT 10SM OVC029 15/08 A3006 RMK AO2 T01500082
KSLR 221755Z AUTO 30014G17KT 10SM OVC027 15/08 A3007 RMK AO2 T01500081 10155 20114
KSLR 221735Z AUTO 31011G18KT 10SM OVC027 15/09 A3007 RMK AO2 T01520087
KSLR 221715Z AUTO 29011G18KT 10SM OVC025 15/08 A3008 RMK AO2 T01460081
KSLR 221655Z AUTO 30011G19KT 10SM OVC023 14/09 A3008 RMK AO2 T01410085